Time;durP1;ratioP1;P1;durP2;ratioP2;P2;SDS_P1;SDS_P2;PMS_P1;PMS_P2;Temp;Humidity;BMP_temperature;BMP_pressure;BME280_temperature;BME280_humidity;BME280_pressure;Samples;Min_cycle;Max_cycle;Signal;HPM_P1;HPM_P2
2022/09/22 00:01:10;;;;;;;14.75;4.15;;;24.90;99.90;;;;;;4948762;23;20090;-56
2022/09/22 00:03:41;;;;;;;5.60;3.03;;;24.90;99.90;;;;;;4936514;29;20030;-56
2022/09/22 00:06:10;;;;;;;8.85;3.20;;;24.90;99.90;;;;;;4936501;29;20053;-57
2022/09/22 00:08:38;;;;;;;13.15;3.10;;;24.90;99.90;;;;;;4936432;29;20489;-56
2022/09/22 00:11:15;;;;;;;5.80;2.90;;;24.90;99.90;;;;;;4936268;29;20031;-57
2022/09/22 00:13:49;;;;;;;7.25;2.95;;;24.90;99.90;;;;;;4936113;29;20391;-57
2022/09/22 00:16:16;;;;;;;6.15;2.83;;;24.90;99.90;;;;;;4936002;29;20086;-57
2022/09/22 00:18:43;;;;;;;8.18;3.47;;;24.90;99.90;;;;;;4936113;29;20023;-57
2022/09/22 00:21:11;;;;;;;9.65;4.28;;;24.90;99.90;;;;;;4936102;29;20050;-57
2022/09/22 00:23:38;;;;;;;6.38;3.33;;;24.80;99.90;;;;;;4936097;29;20032;-56
2022/09/22 00:26:14;;;;;;;7.95;3.28;;;24.80;99.90;;;;;;4935960;29;20036;-56
2022/09/22 00:28:41;;;;;;;9.38;3.13;;;24.80;99.90;;;;;;4935980;29;20036;-56
2022/09/22 00:31:11;;;;;;;6.85;2.40;;;24.80;99.90;;;;;;4936034;29;20034;-55
2022/09/22 00:33:39;;;;;;;9.35;3.10;;;24.80;99.90;;;;;;4935889;29;20058;-56
2022/09/22 00:36:06;;;;;;;7.43;2.85;;;24.80;99.90;;;;;;4935698;29;20440;-56
2022/09/22 00:38:33;;;;;;;10.10;3.42;;;24.70;99.90;;;;;;4934454;29;20023;-55
2022/09/22 00:41:00;;;;;;;11.18;2.90;;;24.70;99.90;;;;;;4935694;29;20024;-56
2022/09/22 00:43:29;;;;;;;9.57;3.00;;;24.70;99.90;;;;;;4935602;29;20062;-55
2022/09/22 00:46:19;;;;;;;9.27;3.17;;;24.70;99.90;;;;;;4935270;29;20531;-55
2022/09/22 00:49:00;;;;;;;14.10;3.63;;;24.70;99.90;;;;;;4934995;29;20515;-55
2022/09/22 00:51:30;;;;;;;9.90;3.15;;;24.60;99.90;;;;;;4935423;29;20067;-55
2022/09/22 00:53:57;;;;;;;11.30;3.67;;;24.60;99.90;;;;;;4935326;29;20032;-55
2022/09/22 00:56:28;;;;;;;8.48;2.85;;;24.60;99.90;;;;;;4935322;29;20024;-55
2022/09/22 00:59:01;;;;;;;6.80;2.95;;;24.50;99.90;;;;;;4935341;29;20402;-54
2022/09/22 01:01:27;;;;;;;7.05;2.72;;;24.50;99.90;;;;;;4935672;29;20052;-55
2022/09/22 01:03:55;;;;;;;6.80;2.80;;;24.50;99.90;;;;;;4935081;29;20035;-55
2022/09/22 01:06:25;;;;;;;8.30;2.88;;;24.50;99.90;;;;;;4935249;29;20107;-54
2022/09/22 01:08:51;;;;;;;6.15;2.92;;;24.50;99.90;;;;;;4935129;29;20024;-55
2022/09/22 01:11:19;;;;;;;11.40;3.20;;;24.50;99.90;;;;;;4934932;29;20395;-55
2022/09/22 01:13:45;;;;;;;;;;;24.50;99.90;;;;;;4935507;29;20107;-55
2022/09/22 01:16:32;;;;;;;8.25;3.00;;;24.50;99.90;;;;;;4935051;29;19993;-54
2022/09/22 01:19:17;;;;;;;11.50;2.97;;;24.40;99.90;;;;;;4934755;29;20047;-54
2022/09/22 01:22:11;;;;;;;14.88;2.72;;;24.40;99.90;;;;;;4934955;29;20091;-55
2022/09/22 01:24:59;;;;;;;9.93;3.28;;;24.40;99.90;;;;;;4934698;29;20083;-55
2022/09/22 01:27:43;;;;;;;;;;;24.40;99.90;;;;;;4933988;29;20030;-55
2022/09/22 01:30:16;;;;;;;11.75;3.38;;;24.40;99.90;;;;;;4934795;29;19998;-56
2022/09/22 01:33:01;;;;;;;20.85;4.72;;;24.30;99.90;;;;;;4934806;29;20027;-55
2022/09/22 01:35:32;;;;;;;22.50;4.03;;;24.40;99.90;;;;;;4934547;29;20031;-55
2022/09/22 01:38:07;;;;;;;19.10;4.85;;;24.30;99.90;;;;;;4934478;29;20028;-56
2022/09/22 01:40:51;;;;;;;23.55;4.40;;;24.30;99.90;;;;;;4934488;29;20059;-54
2022/09/22 01:43:35;;;;;;;23.35;4.65;;;24.30;99.90;;;;;;4934536;29;20028;-55
2022/09/22 01:46:08;;;;;;;22.15;4.53;;;24.30;99.90;;;;;;4934453;29;20059;-54
2022/09/22 01:48:36;;;;;;;15.90;4.70;;;24.30;99.90;;;;;;4934505;29;20024;-54
2022/09/22 01:51:18;;;;;;;26.15;5.85;;;24.30;99.90;;;;;;4934176;29;20032;-55
2022/09/22 01:53:54;;;;;;;21.92;4.70;;;24.30;99.90;;;;;;4934571;29;20031;-55
2022/09/22 01:56:22;;;;;;;17.33;3.47;;;24.30;99.90;;;;;;4934320;29;20031;-54
2022/09/22 01:58:54;;;;;;;22.00;3.80;;;24.30;99.90;;;;;;4933098;29;20136;-55
2022/09/22 02:01:50;;;;;;;10.63;4.00;;;24.20;99.90;;;;;;4934728;29;20071;-55
2022/09/22 02:04:22;;;;;;;17.90;3.95;;;24.20;99.90;;;;;;4931520;29;20071;-55
2022/09/22 02:07:25;;;;;;;11.95;3.28;;;24.20;99.90;;;;;;4934397;29;20024;-55
2022/09/22 02:09:52;;;;;;;14.68;3.95;;;24.20;99.90;;;;;;4924853;29;20110;-55
2022/09/22 02:12:18;;;;;;;6.57;3.73;;;24.20;99.90;;;;;;4934204;29;20031;-56
2022/09/22 02:14:48;;;;;;;17.33;3.83;;;24.20;99.90;;;;;;4934530;29;20019;-56
2022/09/22 02:17:15;;;;;;;14.40;3.35;;;24.20;99.90;;;;;;4934340;29;20024;-56
2022/09/22 02:19:41;;;;;;;12.67;4.23;;;24.20;99.90;;;;;;4934322;29;20028;-54
2022/09/22 02:22:09;;;;;;;18.00;4.03;;;24.10;99.90;;;;;;4934236;29;20024;-54
2022/09/22 02:24:41;;;;;;;21.27;4.45;;;24.20;99.90;;;;;;4934037;29;20488;-54
2022/09/22 02:27:25;;;;;;;16.45;4.78;;;24.20;99.90;;;;;;4934023;29;20032;-53
2022/09/22 02:30:11;;;;;;;15.38;4.07;;;24.20;99.90;;;;;;4934064;29;20032;-54
2022/09/22 02:32:42;;;;;;;14.40;3.22;;;24.20;99.90;;;;;;4933965;29;20030;-54
2022/09/22 02:35:08;;;;;;;15.30;3.75;;;24.20;99.90;;;;;;4933911;29;20034;-55
2022/09/22 02:37:46;;;;;;;14.90;4.25;;;24.20;99.90;;;;;;4934120;29;20472;-54
2022/09/22 02:40:38;;;;;;;21.70;3.80;;;24.20;99.90;;;;;;4933996;29;20032;-54
2022/09/22 02:43:11;;;;;;;10.18;2.95;;;24.20;99.90;;;;;;4933935;29;20036;-54
2022/09/22 02:45:52;;;;;;;19.90;4.38;;;24.20;99.90;;;;;;4933883;29;20043;-54
2022/09/22 02:48:22;;;;;;;19.30;3.25;;;24.20;99.90;;;;;;4934316;29;20091;-54
2022/09/22 02:50:48;;;;;;;15.23;4.05;;;24.20;99.90;;;;;;4934152;29;20047;-54
2022/09/22 02:53:16;;;;;;;14.32;3.33;;;24.20;99.90;;;;;;4933748;29;20055;-54
2022/09/22 02:55:42;;;;;;;10.05;3.53;;;24.20;99.90;;;;;;4933875;29;20032;-54
2022/09/22 02:58:09;;;;;;;17.27;3.93;;;24.20;99.90;;;;;;4933747;29;20365;-54
2022/09/22 03:00:35;;;;;;;10.40;3.33;;;24.20;99.90;;;;;;4952279;23;20394;-54
2022/09/22 03:03:01;;;;;;;9.82;3.40;;;24.20;99.90;;;;;;4955865;28;20031;-54
2022/09/22 03:05:27;;;;;;;11.77;3.00;;;24.20;99.90;;;;;;4956668;28;20043;-55
2022/09/22 03:07:53;;;;;;;25.63;4.45;;;24.20;99.90;;;;;;4956500;28;20046;-54
2022/09/22 03:10:18;;;;;;;11.85;3.40;;;24.20;99.90;;;;;;4955475;28;20403;-55
2022/09/22 03:12:44;;;;;;;17.67;3.80;;;24.20;99.90;;;;;;4956359;28;20384;-55
2022/09/22 03:15:12;;;;;;;10.98;3.05;;;24.20;99.90;;;;;;4956371;28;20107;-55
2022/09/22 03:17:38;;;;;;;9.40;2.85;;;24.20;99.90;;;;;;4956488;28;20029;-55
2022/09/22 03:20:05;;;;;;;12.70;2.42;;;24.20;99.90;;;;;;4955009;29;20024;-54
2022/09/22 03:22:31;;;;;;;13.87;3.57;;;24.20;99.90;;;;;;4956478;28;20611;-55
2022/09/22 03:24:57;;;;;;;13.35;3.13;;;24.20;99.90;;;;;;4956208;28;20039;-55
2022/09/22 03:27:23;;;;;;;8.68;2.67;;;24.20;99.90;;;;;;4956226;28;20038;-55
2022/09/22 03:29:49;;;;;;;9.05;2.85;;;24.20;99.90;;;;;;4956340;28;20427;-55
2022/09/22 03:32:14;;;;;;;13.27;3.45;;;24.20;99.90;;;;;;4955933;28;20531;-56
2022/09/22 03:34:40;;;;;;;18.25;3.60;;;24.20;99.90;;;;;;4956010;28;20035;-56
2022/09/22 03:37:06;;;;;;;12.85;3.28;;;24.20;99.90;;;;;;4956104;28;20070;-55
2022/09/22 03:39:32;;;;;;;14.25;2.92;;;24.30;99.90;;;;;;4955914;28;20031;-55
2022/09/22 03:41:57;;;;;;;9.32;2.45;;;24.20;99.90;;;;;;4955917;28;20029;-56
2022/09/22 03:44:25;;;;;;;9.40;2.53;;;24.20;99.90;;;;;;4955797;28;20031;-56
2022/09/22 03:46:52;;;;;;;9.60;2.90;;;24.20;99.90;;;;;;4955959;28;20031;-56
2022/09/22 03:49:18;;;;;;;9.25;2.58;;;24.20;99.90;;;;;;4955868;28;20496;-55
2022/09/22 03:51:44;;;;;;;7.53;2.80;;;24.20;99.90;;;;;;4955784;28;20035;-55
2022/09/22 03:54:11;;;;;;;11.65;2.72;;;24.20;99.90;;;;;;4955654;28;20041;-55
2022/09/22 03:56:37;;;;;;;7.15;2.58;;;24.20;99.90;;;;;;4955605;28;20396;-55
2022/09/22 03:59:03;;;;;;;7.30;2.17;;;24.10;99.90;;;;;;4955639;28;20035;-54
2022/09/22 04:01:29;;;;;;;7.05;2.85;;;24.10;99.90;;;;;;4955230;28;20549;-55
2022/09/22 04:03:54;;;;;;;13.27;7.80;;;24.10;99.90;;;;;;4955408;28;20031;-54
2022/09/22 04:06:20;;;;;;;10.73;3.85;;;24.10;99.90;;;;;;4955655;28;20075;-55
2022/09/22 04:08:46;;;;;;;9.63;3.28;;;24.10;99.90;;;;;;4955361;28;20039;-54
2022/09/22 04:11:12;;;;;;;10.02;5.57;;;24.10;99.90;;;;;;4954056;28;20055;-55
2022/09/22 04:13:38;;;;;;;11.43;6.65;;;24.10;99.90;;;;;;4955094;28;20039;-55
2022/09/22 04:16:04;;;;;;;9.38;3.03;;;24.10;99.90;;;;;;4955282;28;20044;-55
2022/09/22 04:18:31;;;;;;;12.17;2.63;;;24.00;99.90;;;;;;4955263;28;20023;-55
2022/09/22 04:20:58;;;;;;;18.92;3.88;;;24.00;99.90;;;;;;4955065;28;20261;-54
2022/09/22 04:23:25;;;;;;;7.45;2.42;;;24.00;99.90;;;;;;4955382;28;20035;-55
2022/09/22 04:25:51;;;;;;;7.50;2.38;;;24.00;99.90;;;;;;4953916;28;20384;-55
2022/09/22 04:28:17;;;;;;;7.53;2.42;;;24.00;99.90;;;;;;4954982;28;20479;-55
2022/09/22 04:30:43;;;;;;;10.63;2.17;;;24.00;99.90;;;;;;4955199;28;20114;-55
2022/09/22 04:33:10;;;;;;;8.82;2.70;;;23.90;99.90;;;;;;4954881;28;20102;-54
2022/09/22 04:35:36;;;;;;;11.07;2.55;;;24.00;99.90;;;;;;4954897;28;20023;-55
2022/09/22 04:38:03;;;;;;;6.22;3.08;;;24.00;99.90;;;;;;4954928;28;20499;-55
2022/09/22 04:40:29;;;;;;;15.10;3.67;;;24.00;99.90;;;;;;4954795;28;20033;-55
2022/09/22 04:42:55;;;;;;;6.88;2.70;;;24.00;99.90;;;;;;4955029;28;20442;-54
2022/09/22 04:45:21;;;;;;;10.00;2.63;;;24.00;99.90;;;;;;4954676;28;20033;-54
2022/09/22 04:47:49;;;;;;;6.70;2.22;;;24.00;99.90;;;;;;4954546;28;20031;-55
2022/09/22 04:50:16;;;;;;;5.70;2.28;;;24.00;99.90;;;;;;4954612;28;20038;-55
2022/09/22 04:52:46;;;;;;;7.20;2.17;;;24.00;99.90;;;;;;4954553;28;20034;-54
2022/09/22 04:55:13;;;;;;;3.53;2.10;;;24.00;99.90;;;;;;4954499;28;20038;-54
2022/09/22 04:57:38;;;;;;;6.90;1.98;;;24.10;99.90;;;;;;4954515;28;20054;-54
2022/09/22 05:00:05;;;;;;;12.90;2.22;;;24.10;99.90;;;;;;4969090;28;20087;-54
2022/09/22 05:02:30;;;;;;;6.00;2.10;;;24.10;99.90;;;;;;4954360;28;20030;-53
2022/09/22 05:04:56;;;;;;;13.75;3.05;;;24.10;99.90;;;;;;4954445;28;20046;-55
2022/09/22 05:07:22;;;;;;;11.73;3.15;;;24.10;99.90;;;;;;4954287;28;20019;-54
2022/09/22 05:09:48;;;;;;;9.32;2.90;;;24.10;99.90;;;;;;4954252;28;20097;-54
2022/09/22 05:12:13;;;;;;;7.32;2.83;;;24.10;99.90;;;;;;4954301;28;20574;-55
2022/09/22 05:14:39;;;;;;;6.07;1.95;;;24.20;99.90;;;;;;4954146;28;20118;-55
2022/09/22 05:17:05;;;;;;;9.15;2.40;;;24.20;99.90;;;;;;4954165;28;20024;-56
2022/09/22 05:19:31;;;;;;;9.48;2.47;;;24.30;99.90;;;;;;4954098;29;20027;-56
2022/09/22 05:21:56;;;;;;;8.88;2.58;;;24.30;99.90;;;;;;4954342;28;20059;-56
2022/09/22 05:24:22;;;;;;;8.45;2.65;;;24.30;99.90;;;;;;4953351;28;20428;-56
2022/09/22 05:26:48;;;;;;;13.75;2.45;;;24.30;99.90;;;;;;4953984;28;20098;-55
2022/09/22 05:29:17;;;;;;;13.10;3.20;;;24.40;99.90;;;;;;4953947;28;20042;-56
2022/09/22 05:31:43;;;;;;;12.90;2.67;;;24.40;99.90;;;;;;4953946;28;20027;-56
2022/09/22 05:34:09;;;;;;;4.60;2.33;;;24.40;99.90;;;;;;4953918;28;20019;-55
2022/09/22 05:36:35;;;;;;;14.35;2.60;;;24.50;99.90;;;;;;4953800;28;20436;-54
2022/09/22 05:39:00;;;;;;;8.35;2.72;;;24.50;99.90;;;;;;4953773;28;20023;-55
2022/09/22 05:41:26;;;;;;;11.25;2.80;;;24.50;99.90;;;;;;4952625;28;20444;-55
2022/09/22 05:43:52;;;;;;;9.60;2.63;;;24.50;99.90;;;;;;4953453;28;20356;-55
2022/09/22 05:46:18;;;;;;;15.30;3.47;;;24.50;99.90;;;;;;4952519;29;20383;-55
2022/09/22 05:48:43;;;;;;;15.85;3.75;;;24.50;99.90;;;;;;4952354;29;20028;-55
2022/09/22 05:51:09;;;;;;;10.15;2.70;;;24.50;99.90;;;;;;4953519;28;20385;-55
2022/09/22 05:53:35;;;;;;;16.83;3.63;;;24.60;99.90;;;;;;4953561;28;20102;-54
2022/09/22 05:56:01;;;;;;;8.27;2.38;;;24.60;99.90;;;;;;4953687;28;20027;-55
2022/09/22 05:58:27;;;;;;;7.78;2.45;;;24.60;99.90;;;;;;4953653;28;20575;-55
2022/09/22 06:00:56;;;;;;;7.90;2.35;;;24.50;99.90;;;;;;4953104;28;20043;-56
2022/09/22 06:03:22;;;;;;;7.75;2.72;;;24.60;99.90;;;;;;4953129;28;20034;-55
2022/09/22 06:05:48;;;;;;;15.25;2.90;;;24.50;99.90;;;;;;4953219;28;20118;-55
2022/09/22 06:08:14;;;;;;;13.52;3.17;;;24.50;99.90;;;;;;4953293;28;20524;-55
2022/09/22 06:10:39;;;;;;;10.73;2.72;;;24.50;99.90;;;;;;4953336;28;20523;-55
2022/09/22 06:13:08;;;;;;;11.00;2.88;;;24.50;99.90;;;;;;4953240;28;20384;-56
2022/09/22 06:15:35;;;;;;;8.45;2.83;;;24.50;99.90;;;;;;4953260;28;20485;-55
2022/09/22 06:18:02;;;;;;;12.40;3.10;;;24.50;99.90;;;;;;4953452;28;20026;-55
2022/09/22 06:20:28;;;;;;;14.13;3.67;;;24.50;99.90;;;;;;4953214;29;20106;-57
2022/09/22 06:22:55;;;;;;;12.60;3.60;;;24.50;99.90;;;;;;4953037;28;20155;-56
2022/09/22 06:25:22;;;;;;;11.53;2.90;;;24.50;99.90;;;;;;4953251;28;20038;-57
2022/09/22 06:28:01;;;;;;;12.73;3.08;;;24.50;99.90;;;;;;4953250;28;20023;-55
2022/09/22 06:30:27;;;;;;;12.77;3.72;;;24.50;99.90;;;;;;4953116;28;20074;-56
2022/09/22 06:32:54;;;;;;;7.28;3.70;;;24.50;99.90;;;;;;4953110;28;20023;-55
2022/09/22 06:35:20;;;;;;;11.67;4.17;;;24.50;99.90;;;;;;4952195;28;20046;-57
2022/09/22 06:37:47;;;;;;;12.75;4.45;;;24.50;99.90;;;;;;4957088;28;20031;-56
2022/09/22 06:40:13;;;;;;;15.07;3.80;;;24.50;99.90;;;;;;4956986;28;20066;-57
2022/09/22 06:42:41;;;;;;;12.75;3.70;;;24.50;99.90;;;;;;4956905;28;20066;-57
2022/09/22 06:45:07;;;;;;;12.20;3.55;;;24.60;99.90;;;;;;4956744;28;20043;-57
2022/09/22 06:47:33;;;;;;;10.65;3.85;;;24.60;99.90;;;;;;4956852;28;20027;-57
2022/09/22 06:50:04;;;;;;;9.57;3.20;;;24.60;99.90;;;;;;4956657;28;20034;-57
2022/09/22 06:52:31;;;;;;;10.25;3.30;;;24.60;99.90;;;;;;4956755;28;20023;-57
2022/09/22 06:54:59;;;;;;;13.37;2.80;;;24.70;99.90;;;;;;4956618;28;20027;-57
2022/09/22 06:57:31;;;;;;;11.45;3.17;;;24.60;99.90;;;;;;4956725;28;20138;-57
2022/09/22 07:00:02;;;;;;;9.45;3.60;;;24.70;99.90;;;;;;4956498;28;20047;-56
2022/09/22 07:02:28;;;;;;;8.60;3.90;;;24.70;99.90;;;;;;4956634;28;20032;-56
2022/09/22 07:04:57;;;;;;;11.02;3.28;;;24.80;99.90;;;;;;4956347;28;20035;-56
2022/09/22 07:07:27;;;;;;;13.00;3.90;;;24.80;99.90;;;;;;4956180;28;20086;-56
2022/09/22 07:09:53;;;;;;;19.13;4.60;;;24.80;99.90;;;;;;4956125;28;20027;-56
2022/09/22 07:12:21;;;;;;;8.50;2.72;;;24.90;99.90;;;;;;4956322;28;20023;-58
2022/09/22 07:14:51;;;;;;;7.20;3.00;;;24.90;99.90;;;;;;4956249;28;20046;-56
2022/09/22 07:17:19;;;;;;;10.10;3.00;;;25.00;99.90;;;;;;4956275;28;20039;-56
2022/09/22 07:19:50;;;;;;;12.60;3.47;;;25.00;99.90;;;;;;4954911;29;20545;-57
2022/09/22 07:22:18;;;;;;;10.55;3.90;;;25.10;99.90;;;;;;4956048;28;20035;-56
2022/09/22 07:24:44;;;;;;;13.27;4.32;;;25.10;99.90;;;;;;4970859;28;20039;-56
2022/09/22 07:27:13;;;;;;;12.93;3.58;;;25.10;99.90;;;;;;4954725;29;20020;-56
2022/09/22 07:29:39;;;;;;;28.52;3.92;;;25.20;99.90;;;;;;4956085;28;20023;-57
2022/09/22 07:32:05;;;;;;;12.25;4.00;;;25.20;99.90;;;;;;4956051;28;20416;-56
2022/09/22 07:34:31;;;;;;;18.35;4.20;;;25.30;99.90;;;;;;4955802;28;20546;-56
2022/09/22 07:36:58;;;;;;;24.20;8.02;;;25.30;99.90;;;;;;4955924;28;20023;-57
2022/09/22 07:39:24;;;;;;;13.82;3.67;;;25.30;99.90;;;;;;4955943;28;20243;-56
2022/09/22 07:41:50;;;;;;;16.63;4.57;;;25.40;99.90;;;;;;4955771;28;20667;-56
2022/09/22 07:47:02;;;;;;;14.90;3.25;;;25.40;99.90;;;;;;4955262;28;20571;-56
2022/09/22 07:49:28;;;;;;;10.60;2.70;;;25.40;99.90;;;;;;4955351;28;20035;-56
2022/09/22 07:51:56;;;;;;;13.90;3.22;;;25.40;99.90;;;;;;4955431;28;20480;-56
2022/09/22 07:54:23;;;;;;;12.60;2.92;;;25.40;99.90;;;;;;4954288;29;20035;-56
2022/09/22 07:56:50;;;;;;;14.18;3.55;;;25.50;99.90;;;;;;4955416;28;20023;-56
2022/09/22 07:59:16;;;;;;;13.40;4.20;;;25.50;99.90;;;;;;4955164;28;20023;-55
2022/09/22 08:01:46;;;;;;;12.38;2.72;;;25.50;99.90;;;;;;4955017;28;20098;-56
2022/09/22 08:04:17;;;;;;;14.35;2.70;;;25.50;99.90;;;;;;4955162;28;20043;-56
2022/09/22 08:06:45;;;;;;;10.35;2.78;;;25.50;99.90;;;;;;4954003;29;20027;-56
2022/09/22 08:09:12;;;;;;;10.88;2.55;;;25.50;99.90;;;;;;4955157;28;20054;-55
2022/09/22 08:11:38;;;;;;;12.60;3.28;;;25.60;99.90;;;;;;4955491;28;20043;-56
2022/09/22 08:14:06;;;;;;;10.15;3.05;;;25.60;99.90;;;;;;4955006;28;20144;-55
2022/09/22 08:16:38;;;;;;;10.07;2.25;;;25.60;99.90;;;;;;4955028;28;20031;-56
2022/09/22 08:19:11;;;;;;;14.23;3.53;;;25.60;99.90;;;;;;4954697;28;20106;-55
2022/09/22 08:21:42;;;;;;;9.75;2.60;;;25.70;99.90;;;;;;4955169;28;20491;-56
2022/09/22 08:24:10;;;;;;;8.57;2.20;;;25.70;99.90;;;;;;4954936;28;20039;-56
2022/09/22 08:26:39;;;;;;;8.68;2.50;;;25.70;99.90;;;;;;4955249;28;20381;-55
2022/09/22 08:29:05;;;;;;;10.85;3.10;;;25.80;99.90;;;;;;4955132;28;20464;-55
2022/09/22 08:31:32;;;;;;;10.32;2.55;;;25.80;99.90;;;;;;4954793;28;20619;-55
2022/09/22 08:33:58;;;;;;;8.43;3.00;;;25.90;99.90;;;;;;4954786;28;20070;-56
2022/09/22 08:36:28;;;;;;;9.20;2.80;;;25.90;99.90;;;;;;4954660;28;20383;-55
2022/09/22 08:38:54;;;;;;;11.05;2.40;;;25.90;99.90;;;;;;4954947;28;20026;-55
2022/09/22 08:41:36;;;;;;;7.68;2.05;;;26.00;99.90;;;;;;4954635;28;20054;-55
2022/09/22 08:44:16;;;;;;;8.02;2.20;;;26.00;99.90;;;;;;4954558;28;20572;-55
2022/09/22 08:46:44;;;;;;;7.22;1.95;;;26.00;99.90;;;;;;4953479;29;20035;-56
2022/09/22 08:52:49;;;;;;;7.28;2.22;;;26.10;99.90;;;;;;4914144;29;20552;-55
2022/09/22 08:55:25;;;;;;;9.00;1.70;;;26.10;99.90;;;;;;4913945;29;20030;-56
2022/09/22 08:58:25;;;;;;;6.05;2.45;;;26.10;99.90;;;;;;4945133;28;20063;-56
2022/09/22 09:01:13;;;;;;;7.68;2.00;;;26.10;99.90;;;;;;4953187;28;20154;-56
2022/09/22 09:03:53;;;;;;;11.40;2.35;;;26.20;99.90;;;;;;4935403;28;20035;-55
2022/09/22 09:06:48;;;;;;;14.32;3.33;;;26.20;99.90;;;;;;4954146;28;20043;-56
2022/09/22 09:09:14;;;;;;;11.98;2.38;;;26.30;99.90;;;;;;4953942;28;20027;-55
2022/09/22 09:11:58;;;;;;;9.68;2.50;;;26.30;99.90;;;;;;4954419;28;20419;-56
2022/09/22 09:14:46;;;;;;;11.52;2.38;;;26.40;99.90;;;;;;4953966;28;20487;-55
2022/09/22 09:17:24;;;;;;;13.10;2.78;;;26.40;99.90;;;;;;4954152;28;20039;-56
2022/09/22 09:19:56;;;;;;;10.55;1.75;;;26.40;99.90;;;;;;4952743;29;20034;-55
2022/09/22 09:22:40;;;;;;;10.80;1.90;;;26.40;99.90;;;;;;5088613;28;20390;-55
2022/09/22 09:25:21;;;;;;;6.22;2.05;;;26.50;99.90;;;;;;5088532;28;20025;-55
2022/09/22 09:27:51;;;;;;;7.22;2.03;;;26.50;99.90;;;;;;5088554;28;20024;-56
2022/09/22 09:30:19;;;;;;;11.07;1.83;;;26.50;99.90;;;;;;5088480;28;20468;-56
2022/09/22 09:32:55;;;;;;;7.57;2.03;;;26.50;99.90;;;;;;5088590;28;20028;-55
2022/09/22 09:35:50;;;;;;;10.02;2.20;;;26.60;99.90;;;;;;5088299;28;20078;-54
2022/09/22 09:38:24;;;;;;;6.07;2.10;;;26.60;99.90;;;;;;5087892;28;20047;-55
2022/09/22 09:40:56;;;;;;;12.35;2.70;;;26.60;99.90;;;;;;5087956;28;20050;-55
2022/09/22 09:43:23;;;;;;;11.05;2.22;;;26.70;99.90;;;;;;5088020;28;20028;-55
2022/09/22 09:46:01;;;;;;;9.55;1.80;;;26.70;99.90;;;;;;5088171;28;20027;-55
2022/09/22 09:48:41;;;;;;;10.52;2.28;;;26.70;99.90;;;;;;5088416;28;20017;-55
2022/09/22 09:51:11;;;;;;;8.60;1.73;;;26.70;99.90;;;;;;5088010;28;20024;-55
2022/09/22 09:53:45;;;;;;;9.25;2.20;;;26.80;99.90;;;;;;5087995;28;20495;-55
2022/09/22 09:56:27;;;;;;;11.85;6.20;;;26.90;99.90;;;;;;5088041;28;20063;-55
2022/09/22 10:01:44;;;;;;;10.00;5.20;;;26.90;99.90;;;;;;5088006;28;20043;-55
2022/09/22 10:04:36;;;;;;;11.52;7.20;;;27.00;99.90;;;;;;5087607;28;20046;-56
2022/09/22 10:07:17;;;;;;;7.22;3.70;;;27.00;99.90;;;;;;5083766;28;20493;-55
2022/09/22 10:09:50;;;;;;;15.93;8.90;;;27.10;99.90;;;;;;5087816;28;20078;-55
2022/09/22 10:12:29;;;;;;;12.40;4.22;;;27.10;99.90;;;;;;5087805;28;20090;-56
2022/09/22 10:15:00;;;;;;;12.27;7.78;;;27.10;99.90;;;;;;5087590;28;20052;-55
2022/09/22 10:17:32;;;;;;;13.10;4.72;;;27.10;99.90;;;;;;5087559;28;20577;-55
2022/09/22 10:20:21;;;;;;;12.27;4.32;;;27.20;99.90;;;;;;5087470;28;20044;-55
2022/09/22 10:22:47;;;;;;;10.40;3.17;;;27.20;99.90;;;;;;5087760;28;20029;-55
2022/09/22 10:25:22;;;;;;;12.50;3.40;;;27.30;99.90;;;;;;5087620;28;20028;-56
2022/09/22 10:28:19;;;;;;;6.50;2.28;;;27.30;99.90;;;;;;5087407;28;20487;-56
2022/09/22 10:31:23;;;;;;;7.32;2.30;;;27.30;99.90;;;;;;5070976;28;20115;-56
2022/09/22 10:33:59;;;;;;;10.65;2.10;;;27.40;99.90;;;;;;5050026;28;20522;-55
2022/09/22 10:36:29;;;;;;;6.38;2.53;;;27.40;99.90;;;;;;5073726;28;20078;-56
2022/09/22 10:38:55;;;;;;;7.70;2.17;;;27.40;99.90;;;;;;5073818;28;20027;-56
2022/09/22 10:41:30;;;;;;;7.55;2.83;;;27.40;99.90;;;;;;5073602;28;20036;-55
2022/09/22 10:44:19;;;;;;;14.75;4.22;;;27.50;99.90;;;;;;5073563;28;20028;-55
2022/09/22 10:47:00;;;;;;;12.18;4.53;;;27.50;99.90;;;;;;5073742;28;20025;-55
2022/09/22 10:49:43;;;;;;;11.77;5.10;;;27.50;99.90;;;;;;5073518;28;20028;-55
2022/09/22 10:52:29;;;;;;;11.93;5.13;;;27.50;99.90;;;;;;5073396;28;20021;-55
2022/09/22 10:55:17;;;;;;;9.50;2.70;;;27.60;99.90;;;;;;5073256;28;20199;-55
2022/09/22 10:57:42;;;;;;;8.00;2.63;;;27.60;99.90;;;;;;5073516;28;20522;-55
2022/09/22 11:00:26;;;;;;;12.98;2.55;;;27.60;99.90;;;;;;5073108;28;20024;-56
2022/09/22 11:03:19;;;;;;;9.52;2.67;;;27.60;99.90;;;;;;5073289;28;20062;-55
2022/09/22 11:12:17;;;;;;;6.75;3.42;;;27.70;99.90;;;;;;5073492;28;20047;-55
2022/09/22 11:15:02;;;;;;;8.27;2.63;;;27.80;99.90;;;;;;5072980;28;20025;-55
2022/09/22 11:17:46;;;;;;;14.00;2.67;;;27.80;99.90;;;;;;5072954;28;20478;-54
2022/09/22 11:20:24;;;;;;;10.27;3.83;;;27.80;99.90;;;;;;5072743;28;20075;-54
2022/09/22 11:23:08;;;;;;;17.13;6.68;;;27.90;99.90;;;;;;5072820;28;20078;-54
2022/09/22 11:25:39;;;;;;;9.23;4.20;;;27.90;99.90;;;;;;5072930;28;20021;-54
2022/09/22 11:28:19;;;;;;;9.73;2.20;;;27.90;99.90;;;;;;5072687;28;20024;-55
2022/09/22 11:30:49;;;;;;;11.65;2.63;;;27.90;99.90;;;;;;5072660;28;20058;-54
2022/09/22 11:33:48;;;;;;;7.13;2.05;;;27.90;99.90;;;;;;5072853;28;20024;-57
2022/09/22 11:36:53;;;;;;;7.32;2.42;;;27.90;99.90;;;;;;5072625;28;20032;-56
2022/09/22 11:39:19;;;;;;;11.38;3.10;;;27.90;99.90;;;;;;5072602;28;20107;-56
2022/09/22 11:42:20;;;;;;;9.10;2.45;;;28.00;99.90;;;;;;5072540;28;20037;-56
2022/09/22 11:45:14;;;;;;;11.30;3.03;;;28.00;99.90;;;;;;5071560;28;20037;-55
2022/09/22 11:47:54;;;;;;;9.30;2.63;;;28.00;99.90;;;;;;5072464;28;20024;-55
2022/09/22 11:50:44;;;;;;;11.10;3.45;;;28.00;99.90;;;;;;5072602;28;20431;-55
2022/09/22 11:53:26;;;;;;;7.93;2.75;;;28.10;99.90;;;;;;5072365;28;20082;-56
2022/09/22 11:55:58;;;;;;;10.50;3.63;;;28.10;99.90;;;;;;5072549;28;20103;-55
2022/09/22 11:58:27;;;;;;;7.60;3.78;;;28.20;99.90;;;;;;5072513;28;20096;-54
2022/09/22 12:01:19;;;;;;;7.47;2.45;;;28.20;99.90;;;;;;5072279;28;20048;-54
2022/09/22 12:03:49;;;;;;;11.63;2.78;;;28.20;99.90;;;;;;5054349;28;20048;-56
2022/09/22 12:06:20;;;;;;;6.70;2.50;;;28.20;99.90;;;;;;5072171;28;20083;-56
2022/09/22 12:09:00;;;;;;;8.85;2.45;;;28.20;99.90;;;;;;5072029;28;20029;-56
2022/09/22 12:11:29;;;;;;;6.82;2.78;;;28.20;99.90;;;;;;5071962;28;20035;-56
2022/09/22 12:13:58;;;;;;;11.52;4.65;;;28.30;99.90;;;;;;5072175;28;20036;-55
2022/09/22 12:16:32;;;;;;;9.20;3.13;;;28.30;99.90;;;;;;5072098;28;20465;-55
2022/09/22 12:19:04;;;;;;;9.18;6.20;;;28.30;99.90;;;;;;5071921;28;20052;-55
2022/09/22 12:21:52;;;;;;;10.10;3.70;;;28.30;99.90;;;;;;5071447;28;20053;-56
2022/09/22 12:24:18;;;;;;;11.45;4.75;;;28.40;99.90;;;;;;5053885;28;20116;-56
2022/09/22 12:26:47;;;;;;;7.82;2.17;;;28.40;99.90;;;;;;5071683;28;20552;-55
2022/09/22 12:29:13;;;;;;;4.93;2.08;;;28.40;99.90;;;;;;5071760;28;20067;-56
2022/09/22 12:31:41;;;;;;;15.27;6.20;;;28.50;99.90;;;;;;5071648;28;20482;-55
2022/09/22 12:34:25;;;;;;;12.02;5.43;;;28.50;99.90;;;;;;5071567;28;20017;-56
2022/09/22 12:36:58;;;;;;;9.43;2.42;;;28.50;99.90;;;;;;5071399;28;20099;-55
2022/09/22 12:39:30;;;;;;;5.30;2.20;;;28.50;99.90;;;;;;5071505;28;20025;-55
2022/09/22 12:42:05;;;;;;;7.93;2.97;;;28.60;99.90;;;;;;5071621;28;20037;-55
2022/09/22 12:44:47;;;;;;;7.80;2.35;;;28.60;99.90;;;;;;5071396;28;20024;-55
2022/09/22 12:47:34;;;;;;;12.27;3.70;;;28.60;99.90;;;;;;5071606;28;20031;-54
2022/09/22 12:50:05;;;;;;;10.68;2.72;;;28.60;99.90;;;;;;5071420;28;20560;-55
2022/09/22 12:52:40;;;;;;;5.78;2.40;;;28.70;99.90;;;;;;5071501;28;20028;-54
2022/09/22 12:55:21;;;;;;;7.88;2.15;;;28.70;99.90;;;;;;5071206;28;20031;-54
2022/09/22 12:57:51;;;;;;;6.80;2.20;;;28.70;99.90;;;;;;5071084;28;20407;-55
2022/09/22 13:00:34;;;;;;;5.82;2.20;;;28.70;99.90;;;;;;5053251;28;20054;-54
2022/09/22 13:03:20;;;;;;;9.73;1.90;;;28.70;99.90;;;;;;5071244;28;20052;-55
2022/09/22 13:05:46;;;;;;;5.67;2.13;;;28.70;99.90;;;;;;5056137;28;20111;-54
2022/09/22 13:08:38;;;;;;;7.18;2.00;;;28.70;99.90;;;;;;5050146;28;20830;-52
2022/09/22 13:11:07;;;;;;;10.27;3.45;;;28.70;99.90;;;;;;5031274;28;20060;-54
2022/09/22 13:13:36;;;;;;;7.55;1.98;;;28.70;99.90;;;;;;5064574;28;20036;-54
2022/09/22 13:16:14;;;;;;;7.32;2.15;;;28.70;99.90;;;;;;5057656;28;20400;-53
2022/09/22 13:18:42;;;;;;;8.02;2.22;;;28.70;99.90;;;;;;5069451;28;20021;-54
2022/09/22 13:21:13;;;;;;;9.55;2.20;;;28.60;99.90;;;;;;5057476;28;20188;-52